createdAt,value
2022-09-16T00:00:53.732Z,101047.22
2022-09-16T00:03:21.535Z,101049.94
2022-09-16T00:05:51.147Z,101044.78
2022-09-16T00:08:20.097Z,101047.47
2022-09-16T00:10:47.738Z,101052.09
2022-09-16T00:13:17.483Z,101045.03
2022-09-16T00:15:45.931Z,101043.13
2022-09-16T00:18:13.611Z,101036.06
2022-09-16T00:20:45.460Z,101041.50
2022-09-16T00:23:13.126Z,101041.25
2022-09-16T00:25:40.821Z,101045.84
2022-09-16T00:28:08.788Z,101045.84
2022-09-16T00:30:37.823Z,101040.41
2022-09-16T00:33:05.524Z,101036.88
2022-09-16T00:35:33.177Z,101044.19
2022-09-16T00:38:00.821Z,101042.56
2022-09-16T00:40:28.516Z,101035.50
2022-09-16T00:42:56.213Z,101046.59
2022-09-16T00:45:27.259Z,101042.00
2022-09-16T00:48:00.139Z,101036.84
2022-09-16T00:50:37.991Z,101033.31
2022-09-16T00:53:06.749Z,101025.97
2022-09-16T00:55:38.085Z,101024.34
2022-09-16T00:58:10.276Z,101025.16
2022-09-16T01:00:38.861Z,101028.69
2022-09-16T01:03:08.151Z,101015.38
2022-09-16T01:05:37.539Z,101021.88
2022-09-16T01:08:05.763Z,101017.53
2022-09-16T01:10:33.653Z,101024.59
2022-09-16T01:13:04.451Z,101021.31
2022-09-16T01:15:38.375Z,101027.00
2022-09-16T01:18:15.611Z,101022.66
2022-09-16T01:21:09.204Z,101024.53
2022-09-16T01:24:07.703Z,101024.81
2022-09-16T01:27:14.568Z,101030.22
2022-09-16T01:30:04.271Z,101022.09
2022-09-16T01:32:42.317Z,101023.97
2022-09-16T01:35:20.507Z,101018.00
2022-09-16T01:37:57.353Z,101018.00
2022-09-16T01:40:33.023Z,101010.94
2022-09-16T01:43:11.682Z,101014.47
2022-09-16T01:45:49.959Z,101013.91
2022-09-16T01:48:24.341Z,101015.78
2022-09-16T01:51:00.237Z,101017.69
2022-09-16T01:53:33.707Z,101016.03
2022-09-16T01:56:07.647Z,101019.00
2022-09-16T01:58:40.680Z,101017.13
2022-09-16T02:01:14.350Z,101015.47
2022-09-16T02:03:48.347Z,101011.94
2022-09-16T02:06:20.501Z,101013.84
2022-09-16T02:08:53.651Z,101007.59
2022-09-16T02:11:22.634Z,101012.19
2022-09-16T02:13:55.468Z,101004.50
2022-09-16T02:16:30.863Z,101026.81
2022-09-16T02:19:03.155Z,101022.22
2022-09-16T02:21:35.161Z,101027.09
2022-09-16T02:24:06.789Z,101022.47
2022-09-16T02:26:38.249Z,101022.97
2022-09-16T02:29:14.408Z,101024.06
2022-09-16T02:31:45.195Z,101026.19
2022-09-16T02:34:17.586Z,101019.97
2022-09-16T02:36:48.722Z,101014.78
2022-09-16T02:39:21.159Z,101015.88
2022-09-16T02:41:49.159Z,101014.22
2022-09-16T02:44:17.251Z,101009.06
2022-09-16T02:46:55.495Z,101012.59
2022-09-16T02:49:30.895Z,101006.34
2022-09-16T02:52:05.410Z,101012.03
2022-09-16T02:54:39.471Z,101020.97
2022-09-16T02:57:07.494Z,101015.25
2022-09-16T02:59:35.166Z,101014.41
2022-09-16T03:02:03.019Z,101010.63
2022-09-16T03:04:32.042Z,101012.53
2022-09-16T03:06:59.679Z,101016.31
2022-09-16T03:09:29.817Z,101020.91
2022-09-16T03:12:17.702Z,101008.69
2022-09-16T03:15:08.981Z,101023.63
2022-09-16T03:17:50.354Z,101008.44
2022-09-16T03:20:27.407Z,101005.16
2022-09-16T03:23:02.235Z,101007.03
2022-09-16T03:25:40.364Z,101004.59
2022-09-16T03:28:13.930Z,101002.94
2022-09-16T03:30:50.506Z,101000.50
2022-09-16T03:33:21.325Z,100993.44
2022-09-16T03:35:53.568Z,100992.63
2022-09-16T03:38:21.770Z,100994.50
2022-09-16T03:40:49.756Z,101006.66
2022-09-16T03:43:18.310Z,101001.81
2022-09-16T03:45:46.232Z,100995.56
2022-09-16T03:48:14.778Z,100993.13
2022-09-16T03:50:42.498Z,100998.53
2022-09-16T03:53:11.490Z,101002.31
2022-09-16T03:55:39.154Z,100997.16
2022-09-16T03:58:06.887Z,100995.25
2022-09-16T04:00:34.598Z,101001.50
2022-09-16T04:03:02.505Z,101005.28
2022-09-16T04:05:30.917Z,101008.00
2022-09-16T04:07:58.719Z,101017.19
2022-09-16T04:10:27.759Z,101009.31
2022-09-16T04:12:57.970Z,101005.78
2022-09-16T04:15:25.626Z,101014.16
2022-09-16T04:17:53.288Z,101007.34
2022-09-16T04:20:21.266Z,101004.66
2022-09-16T04:22:49.265Z,101020.09
2022-09-16T04:25:16.931Z,101010.34
2022-09-16T04:27:46.002Z,101011.41
2022-09-16T04:30:14.758Z,101012.72
2022-09-16T04:32:42.405Z,101009.19
2022-09-16T04:35:10.607Z,100999.66
2022-09-16T04:37:38.266Z,101017.09
2022-09-16T04:40:06.768Z,101007.28
2022-09-16T04:42:34.481Z,101010.25
2022-09-16T04:45:03.537Z,101010.50
2022-09-16T04:47:31.822Z,101016.16
2022-09-16T04:49:59.547Z,101021.59
2022-09-16T04:52:27.199Z,101015.59
2022-09-16T04:54:57.378Z,101012.56
2022-09-16T04:57:25.893Z,101008.53
2022-09-16T04:59:53.504Z,101013.13
2022-09-16T05:02:22.489Z,101012.31
2022-09-16T05:04:50.130Z,101003.63
2022-09-16T05:07:17.808Z,101001.47
2022-09-16T05:09:45.499Z,101007.72
2022-09-16T05:12:14.217Z,101001.22
2022-09-16T05:14:41.926Z,101004.75
2022-09-16T05:17:09.536Z,101017.72
2022-09-16T05:19:38.503Z,101005.25
2022-09-16T05:22:07.251Z,101010.44
2022-09-16T05:24:36.448Z,101012.56
2022-09-16T05:27:04.450Z,101024.22
2022-09-16T05:29:32.086Z,101020.69
2022-09-16T05:31:59.768Z,101028.81
2022-09-16T05:34:28.619Z,101025.28
2022-09-16T05:36:58.186Z,101027.19
2022-09-16T05:39:26.610Z,101024.16
2022-09-16T05:41:56.322Z,101030.63
2022-09-16T05:44:24.202Z,101030.13
2022-09-16T05:46:52.098Z,101027.44
2022-09-16T05:49:20.869Z,101020.13
2022-09-16T05:51:50.202Z,101032.59
2022-09-16T05:54:20.036Z,101024.16
2022-09-16T05:56:48.528Z,101027.44
2022-09-16T05:59:17.538Z,101023.91
2022-09-16T06:01:45.861Z,101020.38
2022-09-16T06:04:15.191Z,101020.38
2022-09-16T06:06:44.037Z,101016.28
2022-09-16T06:09:13.983Z,101018.97
2022-09-16T06:11:44.855Z,101023.56
2022-09-16T06:14:13.980Z,101018.16
2022-09-16T06:16:42.533Z,101025.72
2022-09-16T06:19:13.533Z,101024.91
2022-09-16T06:21:43.615Z,101025.72
2022-09-16T06:24:12.092Z,101038.19
2022-09-16T06:26:42.086Z,101032.19
2022-09-16T06:29:11.411Z,101037.63
2022-09-16T06:31:39.892Z,101028.34
2022-09-16T06:34:09.388Z,101039.25
2022-09-16T06:36:42.646Z,101031.94
2022-09-16T06:39:13.277Z,101019.91
2022-09-16T06:41:40.985Z,101037.88
2022-09-16T06:44:08.827Z,101036.78
2022-09-16T06:46:38.746Z,101021.53
2022-09-16T06:49:06.839Z,101043.28
2022-09-16T06:51:35.270Z,101043.53
2022-09-16T06:54:04.981Z,101040.00
2022-09-16T06:56:34.143Z,101040.00
2022-09-16T06:59:01.889Z,101045.41
2022-09-16T07:01:31.243Z,101052.72
2022-09-16T07:04:04.752Z,101051.91
2022-09-16T07:09:20.826Z,101057.31
2022-09-16T07:11:48.439Z,101060.03
2022-09-16T07:14:16.066Z,101064.88
2022-09-16T07:16:43.786Z,101059.06
2022-09-16T07:19:12.866Z,101068.66
2022-09-16T07:21:41.674Z,101067.25
2022-09-16T07:24:12.697Z,101067.25
2022-09-16T07:26:41.663Z,101062.91
2022-09-16T07:29:12.596Z,101057.16
2022-09-16T07:31:40.612Z,101073.75
2022-09-16T07:34:10.378Z,101069.38
2022-09-16T07:36:40.771Z,101072.09
2022-09-16T07:39:09.186Z,101073.16
2022-09-16T07:41:38.705Z,101078.09
2022-09-16T07:44:08.218Z,101075.13
2022-09-16T07:46:37.427Z,101073.25
2022-09-16T07:49:07.337Z,101094.66
2022-09-16T07:51:35.477Z,101078.16
2022-09-16T07:54:06.721Z,101067.81
2022-09-16T07:56:36.921Z,101082.50
2022-09-16T07:59:06.615Z,101086.28
2022-09-16T08:01:37.841Z,101085.97
2022-09-16T08:04:07.793Z,101088.19
2022-09-16T08:06:39.379Z,101096.31
2022-09-16T08:09:37.234Z,101094.66
2022-09-16T08:11:56.141Z,101092.78
2022-09-16T08:14:23.808Z,101099.81
2022-09-16T08:16:51.670Z,101093.59
2022-09-16T08:19:20.482Z,101099.59
2022-09-16T08:21:48.176Z,101097.94
2022-09-16T08:24:17.421Z,101101.47
2022-09-16T08:26:45.083Z,101107.94
2022-09-16T08:29:12.965Z,101108.78
2022-09-16T08:31:40.916Z,101108.78
2022-09-16T08:34:08.601Z,101102.53
2022-09-16T08:36:36.280Z,101104.19
2022-09-16T08:39:04.580Z,101099.41
2022-09-16T08:41:52.879Z,101104.00
2022-09-16T08:44:32.320Z,101098.84
2022-09-16T08:47:01.802Z,101107.03
2022-09-16T08:49:36.286Z,101106.50
2022-09-16T08:52:10.788Z,101102.84
2022-09-16T08:54:41.682Z,101103.91
2022-09-16T08:57:16.103Z,101109.34
2022-09-16T08:59:49.345Z,101100.97
2022-09-16T09:02:32.902Z,101101.88
2022-09-16T09:05:00.730Z,101103.56
2022-09-16T09:07:38.110Z,101110.00
2022-09-16T09:10:14.607Z,101109.41
2022-09-16T09:12:50.460Z,101108.84
2022-09-16T09:15:32.543Z,101102.34
2022-09-16T09:18:16.107Z,101109.41
2022-09-16T09:20:51.313Z,101100.22
2022-09-16T09:23:33.859Z,101096.25
2022-09-16T09:26:10.860Z,101100.28
2022-09-16T09:29:01.259Z,101104.34
2022-09-16T09:31:41.579Z,101109.31
2022-09-16T09:34:24.874Z,101095.75
2022-09-16T09:37:10.787Z,101090.59
2022-09-16T09:39:51.851Z,101089.16
2022-09-16T09:42:22.671Z,101086.13
2022-09-16T09:45:01.418Z,101094.75
2022-09-16T09:47:37.907Z,101085.03
2022-09-16T09:50:16.404Z,101087.78
2022-09-16T09:52:49.375Z,101085.72
2022-09-16T09:55:19.339Z,101072.78
2022-09-16T09:58:02.132Z,101091.00
2022-09-16T10:00:31.120Z,101094.47
2022-09-16T10:03:05.749Z,101083.38
2022-09-16T10:05:33.463Z,101084.06
2022-09-16T10:08:05.449Z,101084.50
2022-09-16T10:10:35.734Z,101080.97
2022-09-16T10:13:10.918Z,101084.25
2022-09-16T10:15:41.270Z,101088.28
2022-09-16T10:18:14.555Z,101085.03
2022-09-16T10:20:45.574Z,101089.94
2022-09-16T10:23:15.107Z,101104.00
2022-09-16T10:25:43.767Z,101094.78
2022-09-16T10:28:24.278Z,101119.75
2022-09-16T10:30:55.666Z,101118.38
2022-09-16T10:33:26.541Z,101127.56
2022-09-16T10:35:58.026Z,101109.53
2022-09-16T10:38:34.936Z,101124.78
2022-09-16T10:41:08.390Z,101122.34
2022-09-16T10:43:39.410Z,101123.41
2022-09-16T10:46:08.944Z,101126.34
2022-09-16T10:48:37.287Z,101114.94
2022-09-16T10:51:07.050Z,101116.00
2022-09-16T10:53:39.321Z,101118.47
2022-09-16T10:56:19.395Z,101125.53
2022-09-16T10:58:47.473Z,101117.41
2022-09-16T11:01:33.661Z,101124.22
2022-09-16T11:04:16.900Z,101126.69
2022-09-16T11:06:56.439Z,101125.34
2022-09-16T11:09:31.621Z,101123.47
2022-09-16T11:12:22.495Z,101123.47
2022-09-16T11:14:58.585Z,101120.19
2022-09-16T11:17:42.287Z,101124.28
2022-09-16T11:20:51.486Z,101125.09
2022-09-16T11:23:34.022Z,101124.28
2022-09-16T11:26:07.698Z,101123.22
2022-09-16T11:28:47.015Z,101117.81
2022-09-16T11:31:25.484Z,101121.31
2022-09-16T11:34:00.163Z,101125.94
2022-09-16T11:36:52.438Z,101126.75
2022-09-16T11:39:45.022Z,101133.00
2022-09-16T11:42:21.273Z,101126.75
2022-09-16T11:44:59.079Z,101126.25
2022-09-16T11:47:44.367Z,101127.06
2022-09-16T11:50:29.594Z,101119.69
2022-09-16T11:53:39.533Z,101122.28
2022-09-16T11:56:15.175Z,101132.56
2022-09-16T11:58:48.819Z,101132.56
2022-09-16T12:01:27.500Z,101135.28
2022-09-16T12:03:59.690Z,101130.91
2022-09-16T12:06:35.331Z,101122.22
2022-09-16T12:09:09.105Z,101127.97
2022-09-16T12:11:44.075Z,101125.00
2022-09-16T12:14:17.560Z,101111.69
2022-09-16T12:16:50.539Z,101108.22
2022-09-16T12:19:24.756Z,101110.69
2022-09-16T12:22:00.438Z,101113.41
2022-09-16T12:24:37.073Z,101100.91
2022-09-16T12:27:07.084Z,101106.78
2022-09-16T12:29:43.271Z,101104.56
2022-09-16T12:32:15.260Z,101121.66
2022-09-16T12:34:49.539Z,101097.69
2022-09-16T12:37:31.941Z,101108.34
2022-09-16T12:40:01.145Z,101120.09
2022-09-16T12:42:54.791Z,101112.50
2022-09-16T12:45:45.275Z,101123.38
2022-09-16T12:48:43.890Z,101121.22
2022-09-16T12:51:40.239Z,101117.44
2022-09-16T12:55:03.959Z,101115.28
2022-09-16T12:57:46.348Z,101127.53
2022-09-16T13:00:18.415Z,101147.91
2022-09-16T13:02:49.882Z,101166.63
2022-09-16T13:05:26.281Z,101146.88
2022-09-16T13:07:59.166Z,101152.00
2022-09-16T13:10:54.929Z,101164.44
2022-09-16T13:13:30.106Z,101166.25
2022-09-16T13:16:00.091Z,101184.16
2022-09-16T13:18:40.603Z,101185.81
2022-09-16T13:21:18.272Z,101189.59
2022-09-16T13:23:48.249Z,101187.69
2022-09-16T13:26:17.258Z,101189.59
2022-09-16T13:28:47.046Z,101183.28
2022-09-16T13:31:20.156Z,101192.81
2022-09-16T13:33:49.331Z,101178.44
2022-09-16T13:36:30.972Z,101175.97
2022-09-16T13:39:00.128Z,101171.03
2022-09-16T13:41:35.242Z,101176.78
2022-09-16T13:44:04.902Z,101172.75
2022-09-16T13:46:35.834Z,101174.63
2022-09-16T13:49:17.899Z,101162.72
2022-09-16T13:51:47.694Z,101169.53
2022-09-16T13:54:30.127Z,101163.53
2022-09-16T13:57:28.843Z,101162.97
2022-09-16T14:00:13.952Z,101169.72
2022-09-16T14:02:56.532Z,101170.78
2022-09-16T14:05:45.480Z,101160.44
2022-09-16T14:08:20.368Z,101166.13
2022-09-16T14:10:57.318Z,101157.41
2022-09-16T14:13:33.352Z,101152.00
2022-09-16T14:16:01.169Z,101147.63
2022-09-16T14:18:32.059Z,101152.81
2022-09-16T14:21:02.739Z,101144.69
2022-09-16T14:23:32.505Z,101147.38
2022-09-16T14:26:11.468Z,101146.56
2022-09-16T14:28:41.602Z,101142.22
2022-09-16T14:31:13.994Z,101134.91
2022-09-16T14:33:44.034Z,101124.88
2022-09-16T14:36:15.993Z,101125.69
2022-09-16T14:38:47.283Z,101127.59
2022-09-16T14:41:24.780Z,101130.56
2022-09-16T14:43:56.629Z,101134.66
2022-09-16T14:46:24.774Z,101132.19
2022-09-16T14:48:52.495Z,101128.41
2022-09-16T14:51:24.682Z,101122.97
2022-09-16T14:54:11.678Z,101118.31
2022-09-16T14:56:40.140Z,101118.63
2022-09-16T14:59:12.098Z,101111.56
2022-09-16T15:01:41.026Z,101107.78
2022-09-16T15:04:12.726Z,101109.69
2022-09-16T15:06:44.764Z,101108.84
2022-09-16T15:09:19.802Z,101114.03
2022-09-16T15:11:50.243Z,101112.13
2022-09-16T15:14:19.862Z,101119.50
2022-09-16T15:16:50.246Z,101121.41
2022-09-16T15:19:22.235Z,101113.03
2022-09-16T15:21:51.339Z,101113.28
2022-09-16T15:24:23.027Z,101119.25
2022-09-16T15:26:51.100Z,101119.06
2022-09-16T15:29:31.968Z,101116.94
2022-09-16T15:32:18.815Z,101113.09
2022-09-16T15:34:46.724Z,101107.91
2022-09-16T15:37:32.258Z,101115.47
2022-09-16T15:40:11.842Z,101100.28
2022-09-16T15:42:39.767Z,101099.47
2022-09-16T15:45:19.786Z,101103.25
2022-09-16T15:47:56.447Z,101100.53
2022-09-16T15:50:24.702Z,101111.63
2022-09-16T15:52:56.775Z,101108.09
2022-09-16T15:55:33.983Z,101102.44
2022-09-16T15:58:06.937Z,101115.97
2022-09-16T16:00:59.306Z,101113.53
2022-09-16T16:03:27.953Z,101117.31
2022-09-16T16:05:55.666Z,101123.81
2022-09-16T16:08:42.478Z,101126.50
2022-09-16T16:11:12.276Z,101139.50
2022-09-16T16:13:39.970Z,101129.72
2022-09-16T16:16:09.680Z,101138.94
2022-09-16T16:18:39.215Z,101126.69
2022-09-16T16:21:08.625Z,101128.84
2022-09-16T16:23:37.486Z,101134.53
2022-09-16T16:26:06.252Z,101139.13
2022-09-16T16:28:33.987Z,101132.06
2022-09-16T16:31:14.482Z,101144.78
2022-09-16T16:33:46.104Z,101142.34
2022-09-16T16:36:14.897Z,101131.50
2022-09-16T16:38:42.595Z,101137.72
2022-09-16T16:41:12.169Z,101134.19
2022-09-16T16:43:39.924Z,101141.25
2022-09-16T16:46:07.767Z,101145.28
2022-09-16T16:48:37.112Z,101152.59
2022-09-16T16:51:07.701Z,101143.66
2022-09-16T16:53:36.059Z,101150.97
2022-09-16T16:56:05.686Z,101152.84
2022-09-16T16:58:36.005Z,101152.28
2022-09-16T17:01:14.776Z,101166.09
2022-09-16T17:03:46.423Z,101163.63
2022-09-16T17:06:14.730Z,101165.53
2022-09-16T17:08:42.533Z,101162.25
2022-09-16T17:11:11.751Z,101170.63
2022-09-16T17:13:40.664Z,101166.25
2022-09-16T17:16:09.183Z,101167.34
2022-09-16T17:18:37.538Z,101176.53
2022-09-16T17:21:08.141Z,101172.44
2022-09-16T17:23:36.429Z,101176.22
2022-09-16T17:26:04.868Z,101173.75
2022-09-16T17:28:32.784Z,101173.19
2022-09-16T17:31:00.520Z,101178.03
2022-09-16T17:33:28.360Z,101186.97
2022-09-16T17:36:03.078Z,101185.59
2022-09-16T17:38:32.294Z,101189.13
2022-09-16T17:41:05.008Z,101193.72
2022-09-16T17:43:33.132Z,101189.13
2022-09-16T17:46:01.517Z,101195.34
2022-09-16T17:48:30.047Z,101194.94
2022-09-16T17:50:58.011Z,101192.97
2022-09-16T17:53:26.408Z,101185.66
2022-09-16T17:56:03.174Z,101179.66
2022-09-16T17:58:30.885Z,101188.63
2022-09-16T18:01:05.351Z,101191.81
2022-09-16T18:03:33.014Z,101186.41
2022-09-16T18:06:05.391Z,101195.59
2022-09-16T18:08:33.047Z,101188.53
2022-09-16T18:11:02.032Z,101196.09
2022-09-16T18:13:29.734Z,101196.09
2022-09-16T18:15:57.527Z,101189.03
2022-09-16T18:18:25.246Z,101196.66
2022-09-16T18:20:54.908Z,101193.72
2022-09-16T18:23:22.783Z,101200.19
2022-09-16T18:25:50.760Z,101203.97
2022-09-16T18:28:20.747Z,101208.59
2022-09-16T18:30:48.550Z,101211.28
2022-09-16T18:33:16.231Z,101202.09
2022-09-16T18:35:43.874Z,101205.88
2022-09-16T18:38:12.909Z,101215.06
2022-09-16T18:40:40.611Z,101213.44
2022-09-16T18:43:08.255Z,101219.09
2022-09-16T18:45:37.397Z,101210.97
2022-09-16T18:48:05.106Z,101215.81
2022-09-16T18:50:34.346Z,101207.91
2022-09-16T18:53:02.058Z,101215.22
2022-09-16T18:55:31.338Z,101228.78
2022-09-16T18:57:59.012Z,101237.41
2022-09-16T19:00:26.614Z,101244.47
2022-09-16T19:02:55.868Z,101240.94
2022-09-16T19:05:23.497Z,101230.09
2022-09-16T19:07:51.174Z,101230.34
2022-09-16T19:10:18.850Z,101231.41
2022-09-16T19:12:46.468Z,101217.31
2022-09-16T19:15:14.994Z,101218.59
2022-09-16T19:17:42.682Z,101217.19
2022-09-16T19:20:11.784Z,101212.03
2022-09-16T19:22:39.401Z,101218.25
2022-09-16T19:25:07.733Z,101229.34
2022-09-16T19:27:35.505Z,101232.06
2022-09-16T19:30:03.402Z,101227.94
2022-09-16T19:32:31.122Z,101224.66
2022-09-16T19:34:58.818Z,101226.78
2022-09-16T19:37:27.830Z,101232.22
2022-09-16T19:39:55.543Z,101239.53
2022-09-16T19:42:23.270Z,101229.75
2022-09-16T19:44:50.873Z,101233.28
2022-09-16T19:47:18.529Z,101238.94
2022-09-16T19:49:46.169Z,101236.22
2022-09-16T19:52:13.842Z,101241.06
2022-09-16T19:54:42.838Z,101241.31
2022-09-16T19:57:10.578Z,101235.66
2022-09-16T19:59:38.234Z,101244.84
2022-09-16T20:02:06.617Z,101234.25
2022-09-16T20:04:34.258Z,101229.66
2022-09-16T20:07:02.119Z,101237.22
2022-09-16T20:09:29.769Z,101240.16
2022-09-16T20:11:58.774Z,101231.22
2022-09-16T20:14:33.730Z,101232.03
2022-09-16T20:17:01.622Z,101243.09
2022-09-16T20:19:29.374Z,101243.09
2022-09-16T20:21:57.096Z,101251.47
2022-09-16T20:24:25.460Z,101249.00
2022-09-16T20:26:56.018Z,101249.25
2022-09-16T20:29:25.212Z,101251.13
2022-09-16T20:31:54.023Z,101243.16
2022-09-16T20:34:24.150Z,101258.44
2022-09-16T20:36:52.117Z,101264.94
2022-09-16T20:39:20.045Z,101261.41
2022-09-16T20:41:49.801Z,101261.97
2022-09-16T20:44:17.954Z,101265.25
2022-09-16T20:46:48.869Z,101262.31
2022-09-16T20:49:18.658Z,101270.69
2022-09-16T20:51:46.913Z,101264.44
2022-09-16T20:54:16.508Z,101254.34
2022-09-16T20:56:46.301Z,101266.56
2022-09-16T20:59:16.141Z,101268.69
2022-09-16T21:01:44.359Z,101286.00
2022-09-16T21:04:14.894Z,101303.91
2022-09-16T21:06:42.954Z,101304.13
2022-09-16T21:09:13.578Z,101293.56
2022-09-16T21:11:44.528Z,101283.88
2022-09-16T21:14:15.180Z,101287.66
2022-09-16T21:16:43.867Z,101293.66
2022-09-16T21:19:13.675Z,101294.72
2022-09-16T21:21:44.192Z,101286.81
2022-09-16T21:24:13.157Z,101289.28
2022-09-16T21:26:41.329Z,101288.47
2022-09-16T21:29:11.530Z,101287.06
2022-09-16T21:31:41.557Z,101285.66
2022-09-16T21:34:15.066Z,101294.84
2022-09-16T21:36:44.333Z,101288.84
2022-09-16T21:39:12.970Z,101280.75
2022-09-16T21:41:40.602Z,101289.94
2022-09-16T21:44:08.299Z,101292.88
2022-09-16T21:46:41.215Z,101298.28
2022-09-16T21:49:16.920Z,101298.53
2022-09-16T21:51:46.019Z,101300.41
2022-09-16T21:54:19.047Z,101294.19
2022-09-16T21:56:48.701Z,101295.47
2022-09-16T21:59:16.493Z,101296.31
2022-09-16T22:01:44.169Z,101300.06
2022-09-16T22:04:13.742Z,101303.25
2022-09-16T22:06:42.130Z,101307.59
2022-09-16T22:09:12.454Z,101307.03
2022-09-16T22:11:41.817Z,101304.56
2022-09-16T22:14:11.142Z,101292.47
2022-09-16T22:16:40.564Z,101299.38
2022-09-16T22:19:09.633Z,101297.41
2022-09-16T22:21:38.934Z,101292.31
2022-09-16T22:24:07.500Z,101292.56
2022-09-16T22:26:37.399Z,101292.56
2022-09-16T22:29:06.224Z,101288.22
2022-09-16T22:31:34.883Z,101285.16
2022-09-16T22:34:03.191Z,101286.56
2022-09-16T22:36:32.736Z,101294.69
2022-09-16T22:39:02.201Z,101291.16
2022-09-16T22:41:30.329Z,101295.16
2022-09-16T22:43:59.351Z,101298.47
2022-09-16T22:46:28.593Z,101294.09
2022-09-16T22:48:57.438Z,101298.47
2022-09-16T22:51:26.314Z,101294.09
2022-09-16T22:53:55.050Z,101292.47
2022-09-16T22:56:25.217Z,101286.22
2022-09-16T22:58:54.485Z,101288.34
2022-09-16T23:01:25.796Z,101289.41
2022-09-16T23:03:54.951Z,101292.13
2022-09-16T23:06:23.368Z,101296.72
2022-09-16T23:08:51.867Z,101289.06
2022-09-16T23:11:23.480Z,101290.97
2022-09-16T23:13:52.698Z,101282.00
2022-09-16T23:16:23.013Z,101287.66
2022-09-16T23:18:52.181Z,101280.38
2022-09-16T23:21:21.682Z,101284.13
2022-09-16T23:23:51.054Z,101286.03
2022-09-16T23:26:20.779Z,101288.97
2022-09-16T23:28:52.197Z,101283.78
2022-09-16T23:31:21.890Z,101290.03
2022-09-16T23:33:49.826Z,101285.34
2022-09-16T23:36:19.468Z,101278.63
2022-09-16T23:38:47.881Z,101284.84
2022-09-16T23:41:17.227Z,101270.50
2022-09-16T23:43:45.311Z,101272.63
2022-09-16T23:46:15.113Z,101274.50
2022-09-16T23:48:44.765Z,101279.91
2022-09-16T23:51:12.898Z,101278.28
2022-09-16T23:53:43.021Z,101272.03
2022-09-16T23:56:12.663Z,101281.81
2022-09-16T23:58:42.023Z,101282.03
